sensor_id;sensor_type;location;lat;lon;timestamp;temperature;humidity
13346;DHT22;6742;48.036;15.780;2024-02-26T00:01:18;2.50;99.90
13346;DHT22;6742;48.036;15.780;2024-02-26T00:03:46;2.40;99.90
13346;DHT22;6742;48.036;15.780;2024-02-26T00:06:13;2.20;99.90
13346;DHT22;6742;48.036;15.780;2024-02-26T00:08:40;2.10;99.90
13346;DHT22;6742;48.036;15.780;2024-02-26T00:11:07;2.10;99.90
13346;DHT22;6742;48.036;15.780;2024-02-26T00:13:35;2.00;99.90
13346;DHT22;6742;48.036;15.780;2024-02-26T00:16:02;2.00;99.90
13346;DHT22;6742;48.036;15.780;2024-02-26T00:18:30;1.90;99.90
13346;DHT22;6742;48.036;15.780;2024-02-26T00:20:58;1.90;99.90
13346;DHT22;6742;48.036;15.780;2024-02-26T00:23:26;2.00;99.90
13346;DHT22;6742;48.036;15.780;2024-02-26T00:25:53;1.90;99.90
13346;DHT22;6742;48.036;15.780;2024-02-26T00:28:23;1.90;99.90
13346;DHT22;6742;48.036;15.780;2024-02-26T00:30:51;1.90;99.90
13346;DHT22;6742;48.036;15.780;2024-02-26T00:33:22;1.90;99.90
13346;DHT22;6742;48.036;15.780;2024-02-26T00:35:49;2.00;99.90
13346;DHT22;6742;48.036;15.780;2024-02-26T00:38:17;2.10;99.90
13346;DHT22;6742;48.036;15.780;2024-02-26T00:40:44;2.10;99.90
13346;DHT22;6742;48.036;15.780;2024-02-26T00:43:11;2.10;99.90
13346;DHT22;6742;48.036;15.780;2024-02-26T00:45:38;2.10;99.90
13346;DHT22;6742;48.036;15.780;2024-02-26T00:48:06;2.10;99.90
13346;DHT22;6742;48.036;15.780;2024-02-26T00:50:33;2.10;99.90
13346;DHT22;6742;48.036;15.780;2024-02-26T00:53:01;2.20;99.90
13346;DHT22;6742;48.036;15.780;2024-02-26T00:55:29;2.20;99.90
13346;DHT22;6742;48.036;15.780;2024-02-26T00:57:56;2.20;99.90
13346;DHT22;6742;48.036;15.780;2024-02-26T01:00:23;2.20;99.90
13346;DHT22;6742;48.036;15.780;2024-02-26T01:02:50;2.20;99.90
13346;DHT22;6742;48.036;15.780;2024-02-26T01:05:17;2.20;99.90
13346;DHT22;6742;48.036;15.780;2024-02-26T01:07:43;2.30;99.90
13346;DHT22;6742;48.036;15.780;2024-02-26T01:10:10;2.30;99.90
13346;DHT22;6742;48.036;15.780;2024-02-26T01:12:39;2.30;99.90
13346;DHT22;6742;48.036;15.780;2024-02-26T01:15:06;2.40;99.90
13346;DHT22;6742;48.036;15.780;2024-02-26T01:17:33;2.30;99.90
13346;DHT22;6742;48.036;15.780;2024-02-26T01:20:00;2.20;99.90
13346;DHT22;6742;48.036;15.780;2024-02-26T01:22:27;2.20;99.90
13346;DHT22;6742;48.036;15.780;2024-02-26T01:24:54;2.10;99.90
13346;DHT22;6742;48.036;15.780;2024-02-26T01:27:22;2.10;99.90
13346;DHT22;6742;48.036;15.780;2024-02-26T01:29:53;2.10;99.90
13346;DHT22;6742;48.036;15.780;2024-02-26T01:32:20;2.10;99.90
13346;DHT22;6742;48.036;15.780;2024-02-26T01:34:47;2.10;99.90
13346;DHT22;6742;48.036;15.780;2024-02-26T01:37:14;2.10;99.90
13346;DHT22;6742;48.036;15.780;2024-02-26T01:39:41;2.00;99.90
13346;DHT22;6742;48.036;15.780;2024-02-26T01:42:08;2.00;99.90
13346;DHT22;6742;48.036;15.780;2024-02-26T01:44:35;2.00;99.90
13346;DHT22;6742;48.036;15.780;2024-02-26T01:47:05;2.00;99.90
13346;DHT22;6742;48.036;15.780;2024-02-26T01:49:34;2.10;99.90
13346;DHT22;6742;48.036;15.780;2024-02-26T01:52:02;2.10;99.90
13346;DHT22;6742;48.036;15.780;2024-02-26T01:54:31;2.00;99.90
13346;DHT22;6742;48.036;15.780;2024-02-26T01:56:59;2.00;99.90
13346;DHT22;6742;48.036;15.780;2024-02-26T01:59:26;1.90;99.90
13346;DHT22;6742;48.036;15.780;2024-02-26T02:01:55;1.90;99.90
13346;DHT22;6742;48.036;15.780;2024-02-26T02:04:25;1.90;99.90
13346;DHT22;6742;48.036;15.780;2024-02-26T02:06:52;1.90;99.90
13346;DHT22;6742;48.036;15.780;2024-02-26T02:09:20;1.90;99.90
13346;DHT22;6742;48.036;15.780;2024-02-26T02:11:48;1.90;99.90
13346;DHT22;6742;48.036;15.780;2024-02-26T02:14:15;1.90;99.90
13346;DHT22;6742;48.036;15.780;2024-02-26T02:16:42;1.90;99.90
13346;DHT22;6742;48.036;15.780;2024-02-26T02:19:09;1.80;99.90
13346;DHT22;6742;48.036;15.780;2024-02-26T02:21:37;1.80;99.90
13346;DHT22;6742;48.036;15.780;2024-02-26T02:24:05;1.80;99.90
13346;DHT22;6742;48.036;15.780;2024-02-26T02:26:32;1.80;99.90
13346;DHT22;6742;48.036;15.780;2024-02-26T02:29:02;1.80;99.90
13346;DHT22;6742;48.036;15.780;2024-02-26T02:31:29;1.70;99.90
13346;DHT22;6742;48.036;15.780;2024-02-26T02:33:57;1.70;99.90
13346;DHT22;6742;48.036;15.780;2024-02-26T02:36:24;1.70;99.90
13346;DHT22;6742;48.036;15.780;2024-02-26T02:38:52;1.60;99.90
13346;DHT22;6742;48.036;15.780;2024-02-26T02:41:19;1.60;99.90
13346;DHT22;6742;48.036;15.780;2024-02-26T02:43:47;1.50;99.90
13346;DHT22;6742;48.036;15.780;2024-02-26T02:46:14;1.50;99.90
13346;DHT22;6742;48.036;15.780;2024-02-26T02:48:41;1.50;99.90
13346;DHT22;6742;48.036;15.780;2024-02-26T02:51:09;1.50;99.90
13346;DHT22;6742;48.036;15.780;2024-02-26T02:53:36;1.60;99.90
13346;DHT22;6742;48.036;15.780;2024-02-26T02:56:05;1.60;99.90
13346;DHT22;6742;48.036;15.780;2024-02-26T02:58:32;1.60;99.90
13346;DHT22;6742;48.036;15.780;2024-02-26T03:00:59;1.60;99.90
13346;DHT22;6742;48.036;15.780;2024-02-26T03:03:26;1.60;99.90
13346;DHT22;6742;48.036;15.780;2024-02-26T03:05:54;1.60;99.90
13346;DHT22;6742;48.036;15.780;2024-02-26T03:08:22;1.60;99.90
13346;DHT22;6742;48.036;15.780;2024-02-26T03:10:48;1.60;99.90
13346;DHT22;6742;48.036;15.780;2024-02-26T03:13:16;1.60;99.90
13346;DHT22;6742;48.036;15.780;2024-02-26T03:15:43;1.60;99.90
13346;DHT22;6742;48.036;15.780;2024-02-26T03:18:10;1.60;99.90
13346;DHT22;6742;48.036;15.780;2024-02-26T03:20:37;1.60;99.90
13346;DHT22;6742;48.036;15.780;2024-02-26T03:23:04;1.70;99.90
13346;DHT22;6742;48.036;15.780;2024-02-26T03:25:32;1.70;99.90
13346;DHT22;6742;48.036;15.780;2024-02-26T03:28:00;1.70;99.90
13346;DHT22;6742;48.036;15.780;2024-02-26T03:30:31;1.70;99.90
13346;DHT22;6742;48.036;15.780;2024-02-26T03:32:58;1.70;99.90
13346;DHT22;6742;48.036;15.780;2024-02-26T03:35:24;1.70;99.90
13346;DHT22;6742;48.036;15.780;2024-02-26T03:37:51;1.70;99.90
13346;DHT22;6742;48.036;15.780;2024-02-26T03:40:18;1.70;99.90
13346;DHT22;6742;48.036;15.780;2024-02-26T03:42:45;1.80;99.90
13346;DHT22;6742;48.036;15.780;2024-02-26T03:45:13;1.80;99.90
13346;DHT22;6742;48.036;15.780;2024-02-26T03:47:41;1.80;99.90
13346;DHT22;6742;48.036;15.780;2024-02-26T03:50:08;1.80;99.90
13346;DHT22;6742;48.036;15.780;2024-02-26T03:52:35;1.90;99.90
13346;DHT22;6742;48.036;15.780;2024-02-26T03:55:02;1.80;99.90
13346;DHT22;6742;48.036;15.780;2024-02-26T03:57:29;1.80;99.90
13346;DHT22;6742;48.036;15.780;2024-02-26T03:59:56;1.80;99.90
13346;DHT22;6742;48.036;15.780;2024-02-26T04:02:23;1.70;99.90
13346;DHT22;6742;48.036;15.780;2024-02-26T04:04:52;1.70;99.90
13346;DHT22;6742;48.036;15.780;2024-02-26T04:07:19;1.40;99.90
13346;DHT22;6742;48.036;15.780;2024-02-26T04:09:46;1.40;99.90
13346;DHT22;6742;48.036;15.780;2024-02-26T04:12:13;1.40;99.90
13346;DHT22;6742;48.036;15.780;2024-02-26T04:14:40;1.40;99.90
13346;DHT22;6742;48.036;15.780;2024-02-26T04:17:07;1.40;99.90
13346;DHT22;6742;48.036;15.780;2024-02-26T04:19:34;1.50;99.90
13346;DHT22;6742;48.036;15.780;2024-02-26T04:22:02;1.40;99.90
13346;DHT22;6742;48.036;15.780;2024-02-26T04:24:29;1.40;99.90
13346;DHT22;6742;48.036;15.780;2024-02-26T04:26:56;1.40;99.90
13346;DHT22;6742;48.036;15.780;2024-02-26T04:29:23;1.40;99.90
13346;DHT22;6742;48.036;15.780;2024-02-26T04:31:49;1.30;99.90
13346;DHT22;6742;48.036;15.780;2024-02-26T04:34:16;1.30;99.90
13346;DHT22;6742;48.036;15.780;2024-02-26T04:36:43;1.30;99.90
13346;DHT22;6742;48.036;15.780;2024-02-26T04:39:11;1.30;99.90
13346;DHT22;6742;48.036;15.780;2024-02-26T04:41:38;1.30;99.90
13346;DHT22;6742;48.036;15.780;2024-02-26T04:44:05;1.30;99.90
13346;DHT22;6742;48.036;15.780;2024-02-26T04:46:32;1.40;99.90
13346;DHT22;6742;48.036;15.780;2024-02-26T04:49:00;1.30;99.90
13346;DHT22;6742;48.036;15.780;2024-02-26T04:51:27;1.30;99.90
13346;DHT22;6742;48.036;15.780;2024-02-26T04:53:54;1.30;99.90
13346;DHT22;6742;48.036;15.780;2024-02-26T04:56:22;1.40;99.90
13346;DHT22;6742;48.036;15.780;2024-02-26T04:58:49;1.40;99.90
13346;DHT22;6742;48.036;15.780;2024-02-26T05:01:16;1.40;99.90
13346;DHT22;6742;48.036;15.780;2024-02-26T05:03:44;1.50;99.90
13346;DHT22;6742;48.036;15.780;2024-02-26T05:06:11;1.40;99.90
13346;DHT22;6742;48.036;15.780;2024-02-26T05:08:41;1.40;99.90
13346;DHT22;6742;48.036;15.780;2024-02-26T05:11:09;1.30;99.90
13346;DHT22;6742;48.036;15.780;2024-02-26T05:13:37;1.30;99.90
13346;DHT22;6742;48.036;15.780;2024-02-26T05:16:05;1.20;99.90
13346;DHT22;6742;48.036;15.780;2024-02-26T05:18:32;1.20;99.90
13346;DHT22;6742;48.036;15.780;2024-02-26T05:20:59;1.10;99.90
13346;DHT22;6742;48.036;15.780;2024-02-26T05:23:26;1.10;99.90
13346;DHT22;6742;48.036;15.780;2024-02-26T05:25:53;1.10;99.90
13346;DHT22;6742;48.036;15.780;2024-02-26T05:28:20;1.10;99.90
13346;DHT22;6742;48.036;15.780;2024-02-26T05:30:49;1.10;99.90
13346;DHT22;6742;48.036;15.780;2024-02-26T05:33:16;1.10;99.90
13346;DHT22;6742;48.036;15.780;2024-02-26T05:35:42;1.10;99.90
13346;DHT22;6742;48.036;15.780;2024-02-26T05:38:10;1.10;99.90
13346;DHT22;6742;48.036;15.780;2024-02-26T05:40:37;1.10;99.90
13346;DHT22;6742;48.036;15.780;2024-02-26T05:43:04;1.10;99.90
13346;DHT22;6742;48.036;15.780;2024-02-26T05:45:31;1.20;99.90
13346;DHT22;6742;48.036;15.780;2024-02-26T05:47:59;1.20;99.90
13346;DHT22;6742;48.036;15.780;2024-02-26T05:50:26;1.30;99.90
13346;DHT22;6742;48.036;15.780;2024-02-26T05:52:53;1.30;99.90
13346;DHT22;6742;48.036;15.780;2024-02-26T05:55:20;1.30;99.90
13346;DHT22;6742;48.036;15.780;2024-02-26T05:57:47;1.40;99.90
13346;DHT22;6742;48.036;15.780;2024-02-26T06:00:15;1.40;99.90
13346;DHT22;6742;48.036;15.780;2024-02-26T06:02:42;1.40;99.90
13346;DHT22;6742;48.036;15.780;2024-02-26T06:05:11;1.40;99.90
13346;DHT22;6742;48.036;15.780;2024-02-26T06:07:38;1.40;99.90
13346;DHT22;6742;48.036;15.780;2024-02-26T06:10:08;1.40;99.90
13346;DHT22;6742;48.036;15.780;2024-02-26T06:12:35;1.50;99.90
13346;DHT22;6742;48.036;15.780;2024-02-26T06:15:03;1.60;99.90
13346;DHT22;6742;48.036;15.780;2024-02-26T06:17:30;1.70;99.90
13346;DHT22;6742;48.036;15.780;2024-02-26T06:19:57;2.10;99.90
13346;DHT22;6742;48.036;15.780;2024-02-26T06:22:26;2.50;99.90
13346;DHT22;6742;48.036;15.780;2024-02-26T06:24:53;3.00;99.90
13346;DHT22;6742;48.036;15.780;2024-02-26T06:27:20;3.30;99.90
13346;DHT22;6742;48.036;15.780;2024-02-26T06:29:47;3.70;99.90
13346;DHT22;6742;48.036;15.780;2024-02-26T06:32:14;4.00;99.90
13346;DHT22;6742;48.036;15.780;2024-02-26T06:34:42;4.00;99.90
13346;DHT22;6742;48.036;15.780;2024-02-26T06:37:09;3.70;99.90
13346;DHT22;6742;48.036;15.780;2024-02-26T06:39:37;3.50;99.90
13346;DHT22;6742;48.036;15.780;2024-02-26T06:42:05;3.40;99.90
13346;DHT22;6742;48.036;15.780;2024-02-26T06:44:33;3.40;99.90
13346;DHT22;6742;48.036;15.780;2024-02-26T06:47:00;3.60;99.90
13346;DHT22;6742;48.036;15.780;2024-02-26T06:49:27;4.20;99.90
13346;DHT22;6742;48.036;15.780;2024-02-26T06:51:54;5.30;99.90
13346;DHT22;6742;48.036;15.780;2024-02-26T06:54:21;6.40;99.90
13346;DHT22;6742;48.036;15.780;2024-02-26T06:56:50;7.30;99.90
13346;DHT22;6742;48.036;15.780;2024-02-26T06:59:16;7.70;99.90
13346;DHT22;6742;48.036;15.780;2024-02-26T07:01:45;8.20;99.90
13346;DHT22;6742;48.036;15.780;2024-02-26T07:04:12;8.40;99.90
13346;DHT22;6742;48.036;15.780;2024-02-26T07:06:39;8.60;99.90
13346;DHT22;6742;48.036;15.780;2024-02-26T07:09:07;8.90;99.90
13346;DHT22;6742;48.036;15.780;2024-02-26T07:11:34;8.80;99.90
13346;DHT22;6742;48.036;15.780;2024-02-26T07:14:02;9.30;99.90
13346;DHT22;6742;48.036;15.780;2024-02-26T07:16:29;9.90;99.90
13346;DHT22;6742;48.036;15.780;2024-02-26T07:18:56;10.30;99.90
13346;DHT22;6742;48.036;15.780;2024-02-26T07:21:23;10.40;99.90
13346;DHT22;6742;48.036;15.780;2024-02-26T07:23:50;10.50;99.90
13346;DHT22;6742;48.036;15.780;2024-02-26T07:26:17;10.10;99.90
13346;DHT22;6742;48.036;15.780;2024-02-26T07:28:45;10.10;99.90
13346;DHT22;6742;48.036;15.780;2024-02-26T07:31:13;10.10;99.90
13346;DHT22;6742;48.036;15.780;2024-02-26T07:33:40;9.80;99.90
13346;DHT22;6742;48.036;15.780;2024-02-26T07:36:07;10.30;99.90
13346;DHT22;6742;48.036;15.780;2024-02-26T07:38:34;10.60;99.90
13346;DHT22;6742;48.036;15.780;2024-02-26T07:41:02;10.90;99.90
13346;DHT22;6742;48.036;15.780;2024-02-26T07:43:29;10.70;99.90
13346;DHT22;6742;48.036;15.780;2024-02-26T07:45:56;11.00;99.90
13346;DHT22;6742;48.036;15.780;2024-02-26T07:48:25;11.10;99.90
13346;DHT22;6742;48.036;15.780;2024-02-26T07:50:52;11.30;99.90
13346;DHT22;6742;48.036;15.780;2024-02-26T07:53:19;11.40;99.90
13346;DHT22;6742;48.036;15.780;2024-02-26T07:55:46;11.60;99.90
13346;DHT22;6742;48.036;15.780;2024-02-26T07:58:12;11.70;99.90
13346;DHT22;6742;48.036;15.780;2024-02-26T08:00:39;11.30;99.90
13346;DHT22;6742;48.036;15.780;2024-02-26T08:03:06;11.10;99.90
13346;DHT22;6742;48.036;15.780;2024-02-26T08:05:34;11.40;99.90
13346;DHT22;6742;48.036;15.780;2024-02-26T08:08:06;11.70;99.90
13346;DHT22;6742;48.036;15.780;2024-02-26T08:10:33;12.00;99.90
13346;DHT22;6742;48.036;15.780;2024-02-26T08:13:00;11.10;99.50
13346;DHT22;6742;48.036;15.780;2024-02-26T08:15:31;10.80;99.90
13346;DHT22;6742;48.036;15.780;2024-02-26T08:17:59;11.40;99.90
13346;DHT22;6742;48.036;15.780;2024-02-26T08:20:28;12.10;99.90
13346;DHT22;6742;48.036;15.780;2024-02-26T08:22:56;12.60;99.50
13346;DHT22;6742;48.036;15.780;2024-02-26T08:25:23;12.70;99.90
13346;DHT22;6742;48.036;15.780;2024-02-26T08:27:51;13.00;98.90
13346;DHT22;6742;48.036;15.780;2024-02-26T08:30:18;12.70;98.90
13346;DHT22;6742;48.036;15.780;2024-02-26T08:32:45;12.90;99.90
13346;DHT22;6742;48.036;15.780;2024-02-26T08:35:12;13.40;98.80
13346;DHT22;6742;48.036;15.780;2024-02-26T08:37:39;12.60;98.20
13346;DHT22;6742;48.036;15.780;2024-02-26T08:40:08;13.10;99.00
13346;DHT22;6742;48.036;15.780;2024-02-26T08:42:35;13.80;99.40
13346;DHT22;6742;48.036;15.780;2024-02-26T08:45:02;13.90;97.70
13346;DHT22;6742;48.036;15.780;2024-02-26T08:47:30;14.00;96.50
13346;DHT22;6742;48.036;15.780;2024-02-26T08:49:56;14.30;97.10
13346;DHT22;6742;48.036;15.780;2024-02-26T08:52:23;14.60;97.50
13346;DHT22;6742;48.036;15.780;2024-02-26T08:54:50;15.00;95.20
13346;DHT22;6742;48.036;15.780;2024-02-26T08:57:19;14.50;96.50
13346;DHT22;6742;48.036;15.780;2024-02-26T08:59:48;13.90;97.60
13346;DHT22;6742;48.036;15.780;2024-02-26T09:02:15;14.10;98.70
13346;DHT22;6742;48.036;15.780;2024-02-26T09:04:42;14.20;97.30
13346;DHT22;6742;48.036;15.780;2024-02-26T09:07:09;14.60;97.70
13346;DHT22;6742;48.036;15.780;2024-02-26T09:09:36;15.00;97.30
13346;DHT22;6742;48.036;15.780;2024-02-26T09:12:04;14.10;95.90
13346;DHT22;6742;48.036;15.780;2024-02-26T09:14:32;14.30;98.30
13346;DHT22;6742;48.036;15.780;2024-02-26T09:16:59;14.50;96.80
13346;DHT22;6742;48.036;15.780;2024-02-26T09:19:26;14.40;96.40
13346;DHT22;6742;48.036;15.780;2024-02-26T09:21:54;13.90;97.50
13346;DHT22;6742;48.036;15.780;2024-02-26T09:24:23;13.90;95.20
13346;DHT22;6742;48.036;15.780;2024-02-26T09:26:53;13.80;98.50
13346;DHT22;6742;48.036;15.780;2024-02-26T09:29:20;14.00;96.80
13346;DHT22;6742;48.036;15.780;2024-02-26T09:31:48;14.10;97.20
13346;DHT22;6742;48.036;15.780;2024-02-26T09:34:15;14.20;96.80
13346;DHT22;6742;48.036;15.780;2024-02-26T09:36:42;14.10;95.80
13346;DHT22;6742;48.036;15.780;2024-02-26T09:39:09;14.20;96.80
13346;DHT22;6742;48.036;15.780;2024-02-26T09:41:37;14.20;96.10
13346;DHT22;6742;48.036;15.780;2024-02-26T09:44:05;13.70;96.80
13346;DHT22;6742;48.036;15.780;2024-02-26T09:46:33;13.50;97.30
13346;DHT22;6742;48.036;15.780;2024-02-26T09:49:02;13.50;97.40
13346;DHT22;6742;48.036;15.780;2024-02-26T09:51:29;13.10;96.60
13346;DHT22;6742;48.036;15.780;2024-02-26T09:53:59;13.10;97.80
13346;DHT22;6742;48.036;15.780;2024-02-26T09:56:27;13.20;97.80
13346;DHT22;6742;48.036;15.780;2024-02-26T09:58:58;13.30;97.30
13346;DHT22;6742;48.036;15.780;2024-02-26T10:01:25;13.50;97.30
13346;DHT22;6742;48.036;15.780;2024-02-26T10:03:56;13.70;97.10
13346;DHT22;6742;48.036;15.780;2024-02-26T10:06:26;13.80;98.60
13346;DHT22;6742;48.036;15.780;2024-02-26T10:08:54;13.90;96.50
13346;DHT22;6742;48.036;15.780;2024-02-26T10:11:24;14.00;95.90
13346;DHT22;6742;48.036;15.780;2024-02-26T10:13:51;14.10;97.50
13346;DHT22;6742;48.036;15.780;2024-02-26T10:16:19;13.90;97.20
13346;DHT22;6742;48.036;15.780;2024-02-26T10:18:47;13.80;96.30
13346;DHT22;6742;48.036;15.780;2024-02-26T10:21:13;14.00;96.40
13346;DHT22;6742;48.036;15.780;2024-02-26T10:23:43;14.10;98.50
13346;DHT22;6742;48.036;15.780;2024-02-26T10:26:12;14.10;96.30
13346;DHT22;6742;48.036;15.780;2024-02-26T10:28:39;14.40;97.50
13346;DHT22;6742;48.036;15.780;2024-02-26T10:31:06;14.60;97.40
13346;DHT22;6742;48.036;15.780;2024-02-26T10:33:34;14.50;96.40
13346;DHT22;6742;48.036;15.780;2024-02-26T10:36:02;14.60;96.20
13346;DHT22;6742;48.036;15.780;2024-02-26T10:38:29;14.70;95.30
13346;DHT22;6742;48.036;15.780;2024-02-26T10:40:58;14.70;95.90
13346;DHT22;6742;48.036;15.780;2024-02-26T10:43:25;14.60;95.90
13346;DHT22;6742;48.036;15.780;2024-02-26T10:45:54;14.70;96.30
13346;DHT22;6742;48.036;15.780;2024-02-26T10:48:21;14.50;95.40
13346;DHT22;6742;48.036;15.780;2024-02-26T10:50:48;14.50;95.10
13346;DHT22;6742;48.036;15.780;2024-02-26T10:53:17;14.90;95.40
13346;DHT22;6742;48.036;15.780;2024-02-26T10:55:48;15.10;92.90
13346;DHT22;6742;48.036;15.780;2024-02-26T10:58:18;15.20;94.90
13346;DHT22;6742;48.036;15.780;2024-02-26T11:00:46;15.60;93.00
13346;DHT22;6742;48.036;15.780;2024-02-26T11:03:15;15.80;89.30
13346;DHT22;6742;48.036;15.780;2024-02-26T11:05:44;15.90;90.60
13346;DHT22;6742;48.036;15.780;2024-02-26T11:08:12;16.00;89.50
13346;DHT22;6742;48.036;15.780;2024-02-26T11:10:40;15.80;90.20
13346;DHT22;6742;48.036;15.780;2024-02-26T11:13:10;15.70;89.10
13346;DHT22;6742;48.036;15.780;2024-02-26T11:15:40;15.30;89.90
13346;DHT22;6742;48.036;15.780;2024-02-26T11:18:08;15.10;90.70
13346;DHT22;6742;48.036;15.780;2024-02-26T11:20:38;15.10;85.40
13346;DHT22;6742;48.036;15.780;2024-02-26T11:23:07;14.80;90.20
13346;DHT22;6742;48.036;15.780;2024-02-26T11:25:35;14.60;91.80
13346;DHT22;6742;48.036;15.780;2024-02-26T11:28:07;14.50;90.90
13346;DHT22;6742;48.036;15.780;2024-02-26T11:30:39;14.60;91.60
13346;DHT22;6742;48.036;15.780;2024-02-26T11:33:08;14.90;91.30
13346;DHT22;6742;48.036;15.780;2024-02-26T11:35:36;14.70;95.50
13346;DHT22;6742;48.036;15.780;2024-02-26T11:38:04;14.40;97.00
13346;DHT22;6742;48.036;15.780;2024-02-26T11:40:33;14.30;98.30
13346;DHT22;6742;48.036;15.780;2024-02-26T11:43:04;14.50;97.50
13346;DHT22;6742;48.036;15.780;2024-02-26T11:45:54;14.30;98.40
13346;DHT22;6742;48.036;15.780;2024-02-26T11:48:25;14.10;98.70
13346;DHT22;6742;48.036;15.780;2024-02-26T11:50:53;14.10;98.20
13346;DHT22;6742;48.036;15.780;2024-02-26T11:53:21;14.40;98.40
13346;DHT22;6742;48.036;15.780;2024-02-26T11:58:32;14.30;98.70
13346;DHT22;6742;48.036;15.780;2024-02-26T12:01:02;14.40;98.30
13346;DHT22;6742;48.036;15.780;2024-02-26T12:03:30;14.40;97.50
13346;DHT22;6742;48.036;15.780;2024-02-26T12:05:57;14.40;98.00
13346;DHT22;6742;48.036;15.780;2024-02-26T12:08:24;14.40;98.60
13346;DHT22;6742;48.036;15.780;2024-02-26T12:10:54;14.40;97.80
13346;DHT22;6742;48.036;15.780;2024-02-26T12:13:29;14.40;98.40
13346;DHT22;6742;48.036;15.780;2024-02-26T12:15:57;14.50;98.70
13346;DHT22;6742;48.036;15.780;2024-02-26T12:18:26;14.70;98.00
13346;DHT22;6742;48.036;15.780;2024-02-26T12:20:59;14.80;98.20
13346;DHT22;6742;48.036;15.780;2024-02-26T12:23:26;14.50;98.50
13346;DHT22;6742;48.036;15.780;2024-02-26T12:25:54;14.60;98.40
13346;DHT22;6742;48.036;15.780;2024-02-26T12:28:27;14.50;94.50
13346;DHT22;6742;48.036;15.780;2024-02-26T12:30:54;14.50;94.90
13346;DHT22;6742;48.036;15.780;2024-02-26T12:33:21;14.30;94.20
13346;DHT22;6742;48.036;15.780;2024-02-26T12:35:50;14.10;95.30
13346;DHT22;6742;48.036;15.780;2024-02-26T12:38:17;14.10;97.00
13346;DHT22;6742;48.036;15.780;2024-02-26T12:40:44;14.00;98.10
13346;DHT22;6742;48.036;15.780;2024-02-26T12:43:12;13.90;97.10
13346;DHT22;6742;48.036;15.780;2024-02-26T12:45:40;13.80;92.30
13346;DHT22;6742;48.036;15.780;2024-02-26T12:48:08;13.70;90.60
13346;DHT22;6742;48.036;15.780;2024-02-26T12:50:37;13.80;92.40
13346;DHT22;6742;48.036;15.780;2024-02-26T12:53:06;13.80;92.20
13346;DHT22;6742;48.036;15.780;2024-02-26T12:55:33;13.80;91.40
13346;DHT22;6742;48.036;15.780;2024-02-26T12:58:02;13.90;92.10
13346;DHT22;6742;48.036;15.780;2024-02-26T13:00:29;13.90;91.90
13346;DHT22;6742;48.036;15.780;2024-02-26T13:02:57;13.80;91.70
13346;DHT22;6742;48.036;15.780;2024-02-26T13:05:26;13.70;91.80
13346;DHT22;6742;48.036;15.780;2024-02-26T13:07:53;13.70;91.80
13346;DHT22;6742;48.036;15.780;2024-02-26T13:10:21;13.70;91.20
13346;DHT22;6742;48.036;15.780;2024-02-26T13:12:50;13.70;91.30
13346;DHT22;6742;48.036;15.780;2024-02-26T13:15:18;13.70;91.80
13346;DHT22;6742;48.036;15.780;2024-02-26T13:17:47;13.80;93.00
13346;DHT22;6742;48.036;15.780;2024-02-26T13:20:26;13.90;97.60
13346;DHT22;6742;48.036;15.780;2024-02-26T13:23:00;13.90;99.50
13346;DHT22;6742;48.036;15.780;2024-02-26T13:25:28;13.60;99.90
13346;DHT22;6742;48.036;15.780;2024-02-26T13:28:07;13.60;99.90
13346;DHT22;6742;48.036;15.780;2024-02-26T13:30:35;13.50;99.90
13346;DHT22;6742;48.036;15.780;2024-02-26T13:33:07;13.20;99.90
13346;DHT22;6742;48.036;15.780;2024-02-26T13:35:35;13.20;99.90
13346;DHT22;6742;48.036;15.780;2024-02-26T13:38:04;13.10;99.90
13346;DHT22;6742;48.036;15.780;2024-02-26T13:40:33;13.10;99.90
13346;DHT22;6742;48.036;15.780;2024-02-26T13:43:00;13.10;99.90
13346;DHT22;6742;48.036;15.780;2024-02-26T13:45:27;13.10;99.90
13346;DHT22;6742;48.036;15.780;2024-02-26T13:47:54;12.90;99.90
13346;DHT22;6742;48.036;15.780;2024-02-26T13:50:27;12.80;99.90
13346;DHT22;6742;48.036;15.780;2024-02-26T13:52:54;12.90;99.90
13346;DHT22;6742;48.036;15.780;2024-02-26T13:55:23;12.60;99.90
13346;DHT22;6742;48.036;15.780;2024-02-26T13:57:53;12.60;99.90
13346;DHT22;6742;48.036;15.780;2024-02-26T14:00:20;12.60;99.90
13346;DHT22;6742;48.036;15.780;2024-02-26T14:02:47;12.50;99.90
13346;DHT22;6742;48.036;15.780;2024-02-26T14:05:15;12.40;99.90
13346;DHT22;6742;48.036;15.780;2024-02-26T14:07:42;12.30;99.90
13346;DHT22;6742;48.036;15.780;2024-02-26T14:10:09;12.10;99.90
13346;DHT22;6742;48.036;15.780;2024-02-26T14:12:38;12.10;99.90
13346;DHT22;6742;48.036;15.780;2024-02-26T14:15:08;12.20;99.90
13346;DHT22;6742;48.036;15.780;2024-02-26T14:17:36;12.20;99.90
13346;DHT22;6742;48.036;15.780;2024-02-26T14:20:04;12.10;99.90
13346;DHT22;6742;48.036;15.780;2024-02-26T14:22:31;12.20;99.90
13346;DHT22;6742;48.036;15.780;2024-02-26T14:24:58;12.20;99.90
13346;DHT22;6742;48.036;15.780;2024-02-26T14:27:25;12.20;99.90
13346;DHT22;6742;48.036;15.780;2024-02-26T14:29:52;12.10;99.90
13346;DHT22;6742;48.036;15.780;2024-02-26T14:32:22;11.90;99.90
13346;DHT22;6742;48.036;15.780;2024-02-26T14:34:49;11.90;99.90
13346;DHT22;6742;48.036;15.780;2024-02-26T14:37:16;11.90;99.90
13346;DHT22;6742;48.036;15.780;2024-02-26T14:39:43;11.90;99.90
13346;DHT22;6742;48.036;15.780;2024-02-26T14:42:10;11.90;99.90
13346;DHT22;6742;48.036;15.780;2024-02-26T14:44:36;11.80;99.90
13346;DHT22;6742;48.036;15.780;2024-02-26T14:47:04;11.80;99.90
13346;DHT22;6742;48.036;15.780;2024-02-26T14:49:32;11.70;99.90
13346;DHT22;6742;48.036;15.780;2024-02-26T14:51:59;11.80;99.90
13346;DHT22;6742;48.036;15.780;2024-02-26T14:54:29;11.80;99.90
13346;DHT22;6742;48.036;15.780;2024-02-26T14:56:58;11.80;99.90
13346;DHT22;6742;48.036;15.780;2024-02-26T14:59:25;11.80;99.90
13346;DHT22;6742;48.036;15.780;2024-02-26T15:01:52;11.80;99.90
13346;DHT22;6742;48.036;15.780;2024-02-26T15:04:19;11.60;99.90
13346;DHT22;6742;48.036;15.780;2024-02-26T15:06:47;11.70;99.90
13346;DHT22;6742;48.036;15.780;2024-02-26T15:09:14;11.50;99.90
13346;DHT22;6742;48.036;15.780;2024-02-26T15:11:41;11.50;99.90
13346;DHT22;6742;48.036;15.780;2024-02-26T15:14:09;11.50;99.90
13346;DHT22;6742;48.036;15.780;2024-02-26T15:16:37;11.40;99.90
13346;DHT22;6742;48.036;15.780;2024-02-26T15:19:04;11.20;99.90
13346;DHT22;6742;48.036;15.780;2024-02-26T15:21:32;11.30;99.90
13346;DHT22;6742;48.036;15.780;2024-02-26T15:24:01;11.30;99.90
13346;DHT22;6742;48.036;15.780;2024-02-26T15:26:29;11.40;99.90
13346;DHT22;6742;48.036;15.780;2024-02-26T15:28:56;11.40;99.90
13346;DHT22;6742;48.036;15.780;2024-02-26T15:31:23;11.40;99.90
13346;DHT22;6742;48.036;15.780;2024-02-26T15:33:51;11.30;99.90
13346;DHT22;6742;48.036;15.780;2024-02-26T15:36:17;11.30;99.90
13346;DHT22;6742;48.036;15.780;2024-02-26T15:38:44;11.30;99.90
13346;DHT22;6742;48.036;15.780;2024-02-26T15:41:13;11.30;99.90
13346;DHT22;6742;48.036;15.780;2024-02-26T15:43:40;11.20;99.90